Time;durP1;ratioP1;P1;durP2;ratioP2;P2;SDS_P1;SDS_P2;PMS_P1;PMS_P2;Temp;Humidity;BMP_temperature;BMP_pressure;BME280_temperature;BME280_humidity;BME280_pressure;Samples;Min_cycle;Max_cycle;Signal;HPM_P1;HPM_P2
2020/12/23 00:01:16;;;;;;;52.15;24.10;;;9.90;99.90;;;;;;5063529;28;20033;-61
2020/12/23 00:03:42;;;;;;;52.85;24.35;;;10.00;99.90;;;;;;5067865;28;20032;-61
2020/12/23 00:06:08;;;;;;;55.63;23.25;;;10.00;99.90;;;;;;5066210;28;20048;-60
2020/12/23 00:08:34;;;;;;;52.63;23.45;;;10.00;99.90;;;;;;5054769;28;20079;-61
2020/12/23 00:11:01;;;;;;;53.78;24.25;;;10.10;99.90;;;;;;5057385;28;20144;-61
2020/12/23 00:13:27;;;;;;;54.15;23.80;;;10.10;99.90;;;;;;5055413;28;20049;-61
2020/12/23 00:15:53;;;;;;;60.03;25.00;;;10.10;99.90;;;;;;5059267;28;20453;-60
2020/12/23 00:18:19;;;;;;;59.70;24.25;;;10.00;99.90;;;;;;5056069;28;20033;-61
2020/12/23 00:20:44;;;;;;;52.67;23.13;;;10.00;99.90;;;;;;5054721;28;20398;-60
2020/12/23 00:23:10;;;;;;;56.92;23.13;;;10.00;99.90;;;;;;5056968;28;20104;-62
2020/12/23 00:25:36;;;;;;;54.00;23.45;;;10.10;99.90;;;;;;5058139;28;20520;-60
2020/12/23 00:28:01;;;;;;;50.78;22.95;;;10.10;99.90;;;;;;5056082;28;20025;-60
2020/12/23 00:30:27;;;;;;;57.55;22.98;;;10.10;99.90;;;;;;5054458;28;20482;-62
2020/12/23 00:32:53;;;;;;;57.92;23.40;;;10.00;99.90;;;;;;5059140;28;20292;-60
2020/12/23 00:35:19;;;;;;;58.63;24.02;;;10.00;99.90;;;;;;5062802;28;20044;-60
2020/12/23 00:37:44;;;;;;;47.38;20.83;;;10.00;99.90;;;;;;5062830;28;20052;-59
2020/12/23 00:40:10;;;;;;;49.70;21.40;;;10.00;99.90;;;;;;5062549;28;20028;-61
2020/12/23 00:42:36;;;;;;;52.95;22.08;;;10.00;99.90;;;;;;5074380;28;20028;-61
2020/12/23 00:45:02;;;;;;;46.40;21.42;;;10.10;99.90;;;;;;5070615;28;20032;-61
2020/12/23 00:47:28;;;;;;;55.20;21.73;;;10.10;99.90;;;;;;5065783;28;20033;-60
2020/12/23 00:49:54;;;;;;;55.88;22.83;;;10.10;99.90;;;;;;5064331;28;20116;-60
2020/12/23 00:52:19;;;;;;;54.63;21.42;;;10.10;99.90;;;;;;5062328;28;20086;-59
2020/12/23 00:54:45;;;;;;;45.83;20.50;;;10.10;99.90;;;;;;5059265;28;20043;-59
2020/12/23 00:57:11;;;;;;;50.95;21.70;;;10.10;99.90;;;;;;5066384;28;20487;-60
2020/12/23 00:59:36;;;;;;;44.95;19.83;;;10.10;99.90;;;;;;5062932;28;20036;-61
2020/12/23 01:02:03;;;;;;;43.38;20.92;;;10.10;99.90;;;;;;5070832;28;20028;-60
2020/12/23 01:04:29;;;;;;;57.78;22.30;;;10.10;99.90;;;;;;5078903;28;20031;-61
2020/12/23 01:06:55;;;;;;;47.60;20.63;;;10.10;99.90;;;;;;5087826;28;20028;-60
2020/12/23 01:09:21;;;;;;;52.33;21.05;;;10.00;99.90;;;;;;5078620;28;20024;-61
2020/12/23 01:11:50;;;;;;;46.25;19.88;;;10.10;99.90;;;;;;5065653;28;20129;-59
2020/12/23 01:14:17;;;;;;;47.80;20.40;;;10.10;99.90;;;;;;5060469;28;20044;-61
2020/12/23 01:16:43;;;;;;;52.90;20.48;;;10.10;99.90;;;;;;5072669;28;20028;-59
2020/12/23 01:19:09;;;;;;;51.38;20.10;;;10.10;99.90;;;;;;5090158;28;20028;-60
2020/12/23 01:21:35;;;;;;;45.80;19.90;;;10.10;99.90;;;;;;5070570;28;20058;-59
2020/12/23 01:24:00;;;;;;;46.13;19.83;;;10.10;99.90;;;;;;5077424;28;20478;-59
2020/12/23 01:26:26;;;;;;;38.78;18.98;;;10.10;99.90;;;;;;5069426;28;20024;-59
2020/12/23 01:28:52;;;;;;;42.88;18.95;;;10.10;99.90;;;;;;5073441;28;20063;-59
2020/12/23 01:31:17;;;;;;;35.80;17.63;;;10.10;99.90;;;;;;5065946;28;20112;-63
2020/12/23 01:33:43;;;;;;;40.33;18.48;;;10.20;99.90;;;;;;5066747;28;20397;-60
2020/12/23 01:36:09;;;;;;;42.72;18.25;;;10.10;99.90;;;;;;5075849;28;20071;-62
2020/12/23 01:38:36;;;;;;;37.47;16.95;;;10.20;99.90;;;;;;5077499;28;20465;-59
2020/12/23 01:41:04;;;;;;;39.55;17.63;;;10.20;99.90;;;;;;5075575;28;20044;-59
2020/12/23 01:43:30;;;;;;;35.85;16.25;;;10.20;99.90;;;;;;5064636;28;20111;-59
2020/12/23 01:45:56;;;;;;;31.13;14.45;;;10.20;99.90;;;;;;5070381;28;20032;-59
2020/12/23 01:48:25;;;;;;;28.17;13.82;;;10.20;99.90;;;;;;5072838;28;20822;-59
2020/12/23 01:50:51;;;;;;;28.73;12.90;;;10.20;99.90;;;;;;5070206;28;20397;-59
2020/12/23 01:53:17;;;;;;;25.45;12.55;;;10.20;99.90;;;;;;5070931;28;20038;-58
2020/12/23 01:55:47;;;;;;;19.50;10.20;;;10.20;99.90;;;;;;5053603;28;20086;-60
2020/12/23 01:58:13;;;;;;;17.58;9.55;;;10.20;99.90;;;;;;5085252;28;20020;-62
2020/12/23 02:00:40;;;;;;;12.40;7.90;;;10.30;99.90;;;;;;5076416;28;20395;-61
2020/12/23 02:03:09;;;;;;;10.68;6.75;;;10.30;99.90;;;;;;5084242;28;20036;-62
2020/12/23 02:05:36;;;;;;;12.02;7.18;;;10.40;99.90;;;;;;5085264;28;20079;-61
2020/12/23 02:08:02;;;;;;;11.52;7.32;;;10.40;99.90;;;;;;5072491;28;20036;-60
2020/12/23 02:10:28;;;;;;;13.10;7.43;;;10.40;99.90;;;;;;5079472;28;20086;-62
2020/12/23 02:12:54;;;;;;;11.82;6.38;;;10.40;99.90;;;;;;5072375;28;20028;-62
2020/12/23 02:15:20;;;;;;;12.50;6.80;;;10.40;99.90;;;;;;5065549;28;20082;-61
2020/12/23 02:17:47;;;;;;;17.17;7.88;;;10.40;99.90;;;;;;5072148;28;20027;-60
2020/12/23 02:20:15;;;;;;;16.38;8.32;;;10.40;99.90;;;;;;5077003;28;20039;-60
2020/12/23 02:22:42;;;;;;;17.48;8.55;;;10.40;99.90;;;;;;5075957;28;20109;-61
2020/12/23 02:25:08;;;;;;;14.60;8.73;;;10.40;99.90;;;;;;5056942;28;20067;-62
2020/12/23 02:27:34;;;;;;;18.08;9.45;;;10.40;99.90;;;;;;5060835;28;20391;-61
2020/12/23 02:30:01;;;;;;;23.38;9.55;;;10.40;99.90;;;;;;5062381;28;20477;-62
2020/12/23 02:32:27;;;;;;;22.45;10.88;;;10.50;99.90;;;;;;5082920;28;20043;-61
2020/12/23 02:34:54;;;;;;;21.08;10.77;;;10.50;99.90;;;;;;5077807;28;20042;-64
2020/12/23 02:37:20;;;;;;;21.63;11.10;;;10.50;99.90;;;;;;5069741;28;20028;-61
2020/12/23 02:39:50;;;;;;;23.52;11.38;;;10.50;99.90;;;;;;5071511;28;20529;-63
2020/12/23 02:42:17;;;;;;;24.77;11.27;;;10.50;99.90;;;;;;5088088;28;20494;-61
2020/12/23 02:44:43;;;;;;;27.73;12.25;;;10.50;99.90;;;;;;5086412;28;20036;-60
2020/12/23 02:47:10;;;;;;;26.90;12.70;;;10.50;99.90;;;;;;5075222;28;20043;-61
2020/12/23 02:49:37;;;;;;;31.10;12.75;;;10.60;99.90;;;;;;5067400;28;20081;-62
2020/12/23 02:52:04;;;;;;;33.45;15.50;;;10.70;99.90;;;;;;5074939;28;20035;-58
2020/12/23 02:54:29;;;;;;;32.28;14.90;;;10.70;99.90;;;;;;5071263;28;20420;-62
2020/12/23 02:56:55;;;;;;;29.45;13.88;;;10.70;99.90;;;;;;5083733;28;20496;-60
2020/12/23 02:59:21;;;;;;;30.05;14.27;;;10.70;99.90;;;;;;5072152;28;20032;-62
2020/12/23 03:01:47;;;;;;;29.10;14.52;;;10.70;99.90;;;;;;5081413;28;20529;-61
2020/12/23 03:04:13;;;;;;;30.67;13.88;;;10.70;99.90;;;;;;5092034;28;20508;-61
2020/12/23 03:06:39;;;;;;;32.58;15.00;;;10.70;99.90;;;;;;5075011;28;20033;-61
2020/12/23 03:09:08;;;;;;;34.08;15.13;;;10.70;99.90;;;;;;5054280;28;20487;-60
2020/12/23 03:11:34;;;;;;;30.27;14.68;;;10.60;99.90;;;;;;5070909;28;20470;-61
2020/12/23 03:14:00;;;;;;;34.65;15.98;;;10.60;99.90;;;;;;5061014;28;20105;-61
2020/12/23 03:16:26;;;;;;;33.10;15.32;;;10.70;99.90;;;;;;5072803;28;20514;-60
2020/12/23 03:18:53;;;;;;;32.22;15.10;;;10.70;99.90;;;;;;5053518;28;20104;-61
2020/12/23 03:21:18;;;;;;;40.63;15.65;;;10.60;99.90;;;;;;5073911;28;20024;-63
2020/12/23 03:23:44;;;;;;;37.33;16.48;;;10.60;99.90;;;;;;5088026;28;20085;-62
2020/12/23 03:26:10;;;;;;;32.63;15.15;;;10.60;99.90;;;;;;5081514;28;20033;-62
2020/12/23 03:28:36;;;;;;;35.88;15.20;;;10.60;99.90;;;;;;5061663;28;20039;-62
2020/12/23 03:31:02;;;;;;;34.78;15.05;;;10.60;99.90;;;;;;5068873;28;20024;-62
2020/12/23 03:33:28;;;;;;;35.65;15.13;;;10.60;99.90;;;;;;5081809;28;20117;-61
2020/12/23 03:35:55;;;;;;;29.75;14.20;;;10.70;99.90;;;;;;5073434;28;20032;-62
2020/12/23 03:38:21;;;;;;;29.27;14.68;;;10.60;99.90;;;;;;5085904;28;20531;-59
2020/12/23 03:40:46;;;;;;;34.00;14.90;;;10.70;99.90;;;;;;5075286;28;20029;-62
2020/12/23 03:43:12;;;;;;;33.08;14.45;;;10.70;99.90;;;;;;5073211;28;20378;-61
2020/12/23 03:45:38;;;;;;;29.55;14.07;;;10.60;99.90;;;;;;5060588;28;20119;-60
2020/12/23 03:48:04;;;;;;;29.65;13.85;;;10.70;99.90;;;;;;5083830;28;20052;-62
2020/12/23 03:50:30;;;;;;;27.13;14.15;;;10.70;99.90;;;;;;5059278;28;20479;-60
2020/12/23 03:52:56;;;;;;;26.10;13.73;;;10.70;99.90;;;;;;5071861;28;20062;-62
2020/12/23 03:55:22;;;;;;;28.80;13.80;;;10.80;99.90;;;;;;5070870;28;20032;-61
2020/12/23 03:57:47;;;;;;;29.55;14.73;;;10.80;99.90;;;;;;5064093;28;20528;-62
2020/12/23 04:00:13;;;;;;;26.95;13.98;;;10.90;99.90;;;;;;5072693;28;20047;-61
2020/12/23 04:02:42;;;;;;;25.25;14.18;;;10.90;99.90;;;;;;5065157;28;20037;-61
2020/12/23 04:05:08;;;;;;;29.50;15.00;;;10.80;99.90;;;;;;5071287;28;20036;-62
2020/12/23 04:07:34;;;;;;;27.60;14.23;;;10.90;99.90;;;;;;5075485;28;20482;-61
2020/12/23 04:10:01;;;;;;;26.95;14.68;;;10.80;99.90;;;;;;5081584;28;20119;-62
2020/12/23 04:12:26;;;;;;;23.23;12.65;;;10.80;99.90;;;;;;5075617;28;20059;-62
2020/12/23 04:14:53;;;;;;;23.67;12.57;;;10.80;99.90;;;;;;5076739;28;20028;-62
2020/12/23 04:17:19;;;;;;;24.52;12.55;;;10.90;99.90;;;;;;5061727;28;20033;-62
2020/12/23 04:19:44;;;;;;;24.40;12.90;;;10.80;99.90;;;;;;5081216;28;20437;-60
2020/12/23 04:22:10;;;;;;;23.73;13.23;;;10.80;99.90;;;;;;5086383;28;20420;-62
2020/12/23 04:24:37;;;;;;;26.60;12.95;;;10.90;99.90;;;;;;5075993;28;20020;-61
2020/12/23 04:27:02;;;;;;;24.30;13.05;;;10.80;99.90;;;;;;5070043;28;20094;-60
2020/12/23 04:29:28;;;;;;;21.92;11.90;;;10.80;99.90;;;;;;5065772;28;20521;-61
2020/12/23 04:31:54;;;;;;;23.33;12.15;;;10.80;99.90;;;;;;5073594;28;20037;-61
2020/12/23 04:34:20;;;;;;;20.33;11.60;;;10.80;99.90;;;;;;5072190;28;20040;-61
2020/12/23 04:36:45;;;;;;;22.50;12.48;;;10.80;99.90;;;;;;5079279;28;20467;-60
2020/12/23 04:39:11;;;;;;;19.80;11.40;;;10.80;99.90;;;;;;5080303;28;20439;-62
2020/12/23 04:41:37;;;;;;;25.42;11.95;;;10.80;99.90;;;;;;5084616;28;20032;-60
2020/12/23 04:44:04;;;;;;;19.50;11.27;;;10.80;99.90;;;;;;5075073;28;20063;-62
2020/12/23 04:46:34;;;;;;;23.98;12.15;;;10.80;99.90;;;;;;5078624;28;20543;-62
2020/12/23 04:49:02;;;;;;;20.02;11.20;;;10.80;99.90;;;;;;5090237;28;20028;-61
2020/12/23 04:51:39;;;;;;;21.25;11.35;;;10.80;99.90;;;;;;5071872;28;20081;-60
2020/12/23 04:54:06;;;;;;;19.48;11.30;;;10.90;99.90;;;;;;5069285;28;20097;-61
2020/12/23 04:56:34;;;;;;;23.63;12.55;;;10.90;99.90;;;;;;5072193;28;20094;-61
2020/12/23 04:59:01;;;;;;;20.23;11.55;;;10.90;99.90;;;;;;5059793;28;20394;-62
2020/12/23 05:01:27;;;;;;;23.27;12.07;;;10.90;99.90;;;;;;5070267;28;20042;-60
2020/12/23 05:03:54;;;;;;;21.60;11.15;;;10.90;99.90;;;;;;5091079;28;20037;-62
2020/12/23 05:06:21;;;;;;;19.95;10.65;;;10.80;99.90;;;;;;5075639;28;20025;-62
2020/12/23 05:08:47;;;;;;;22.95;12.18;;;10.80;99.90;;;;;;5062805;28;20554;-61
2020/12/23 05:11:14;;;;;;;19.58;10.98;;;10.80;99.90;;;;;;5086767;28;20071;-62
2020/12/23 05:13:41;;;;;;;20.52;11.20;;;10.80;99.90;;;;;;5074704;28;20068;-60
2020/12/23 05:16:09;;;;;;;27.40;12.63;;;10.80;99.90;;;;;;5068678;28;20376;-62
2020/12/23 05:18:39;;;;;;;26.58;12.55;;;10.80;99.90;;;;;;5073029;28;20033;-62
2020/12/23 05:21:15;;;;;;;27.45;12.77;;;10.80;99.90;;;;;;5069591;28;20474;-62
2020/12/23 05:23:48;;;;;;;27.73;12.50;;;10.80;99.90;;;;;;5072141;28;20095;-61
2020/12/23 05:26:15;;;;;;;28.40;12.63;;;10.90;99.90;;;;;;5068382;28;20056;-61
2020/12/23 05:28:42;;;;;;;32.03;13.70;;;10.90;99.90;;;;;;5059598;28;20086;-61
2020/12/23 05:31:17;;;;;;;31.42;13.27;;;10.90;99.90;;;;;;5057128;28;20031;-61
2020/12/23 05:33:47;;;;;;;34.08;12.93;;;10.90;99.90;;;;;;5068771;28;20108;-62
2020/12/23 05:36:18;;;;;;;37.58;13.52;;;10.90;99.90;;;;;;5077787;28;20474;-62
2020/12/23 05:38:45;;;;;;;34.90;13.57;;;10.90;99.90;;;;;;5073624;28;20491;-63
2020/12/23 05:41:15;;;;;;;33.83;13.07;;;10.90;99.90;;;;;;5077110;28;20016;-62
2020/12/23 05:43:41;;;;;;;31.13;13.05;;;10.90;99.90;;;;;;5080900;28;20033;-61
2020/12/23 05:46:09;;;;;;;31.02;12.95;;;10.90;99.90;;;;;;5064803;28;20049;-61
2020/12/23 05:48:38;;;;;;;33.35;13.73;;;10.80;99.90;;;;;;5053842;28;20033;-62
2020/12/23 05:51:05;;;;;;;33.65;13.43;;;10.90;99.90;;;;;;5068737;28;20032;-61
2020/12/23 05:53:35;;;;;;;33.58;12.80;;;10.90;99.90;;;;;;5055967;28;20392;-61
2020/12/23 05:56:03;;;;;;;29.02;12.68;;;11.00;99.90;;;;;;5057272;28;20037;-60
2020/12/23 05:58:35;;;;;;;33.78;13.30;;;11.00;99.90;;;;;;5094317;28;20114;-61
2020/12/23 06:01:06;;;;;;;37.15;12.95;;;10.90;99.90;;;;;;5065171;28;20036;-61
2020/12/23 06:03:58;;;;;;;35.15;13.52;;;11.00;99.90;;;;;;5053799;28;20028;-61
2020/12/23 06:06:29;;;;;;;30.17;12.77;;;10.90;99.90;;;;;;5080264;28;20028;-62
2020/12/23 06:08:56;;;;;;;39.15;13.02;;;10.90;99.90;;;;;;5072582;28;20029;-62
2020/12/23 06:11:40;;;;;;;36.33;14.30;;;10.90;99.90;;;;;;5071732;28;20044;-61
2020/12/23 06:14:08;;;;;;;35.08;14.13;;;10.90;99.90;;;;;;5058900;28;20052;-62
2020/12/23 06:16:36;;;;;;;40.25;15.02;;;10.90;99.90;;;;;;5055766;28;20043;-61
2020/12/23 06:19:22;;;;;;;32.33;14.32;;;10.90;99.90;;;;;;5057797;28;20052;-61
2020/12/23 06:21:50;;;;;;;36.03;13.98;;;11.00;99.90;;;;;;5058595;28;20056;-62
2020/12/23 06:24:16;;;;;;;38.70;13.43;;;11.00;99.90;;;;;;5058608;28;20024;-61
2020/12/23 06:26:52;;;;;;;37.72;14.30;;;10.90;99.90;;;;;;5056694;28;20029;-61
2020/12/23 06:29:24;;;;;;;27.20;13.20;;;10.90;99.90;;;;;;5069506;28;20070;-60
2020/12/23 06:32:09;;;;;;;25.60;12.73;;;11.00;99.90;;;;;;5058458;28;20037;-63
2020/12/23 06:34:37;;;;;;;23.02;11.95;;;11.00;99.90;;;;;;5054914;28;20029;-61
2020/12/23 06:37:15;;;;;;;23.75;11.85;;;11.00;99.90;;;;;;5068589;28;20036;-61
2020/12/23 06:39:41;;;;;;;22.63;12.13;;;11.10;99.90;;;;;;5071566;28;20371;-61
2020/12/23 06:42:07;;;;;;;22.60;12.80;;;11.10;99.90;;;;;;5085911;28;20130;-60
2020/12/23 06:44:45;;;;;;;25.13;12.90;;;11.10;99.90;;;;;;5085402;28;20082;-61
2020/12/23 06:47:17;;;;;;;28.40;14.18;;;11.10;99.90;;;;;;5072918;28;20025;-61
2020/12/23 06:50:07;;;;;;;24.85;13.07;;;11.20;99.90;;;;;;5066236;28;20032;-61
2020/12/23 06:52:37;;;;;;;23.45;14.15;;;11.10;99.90;;;;;;5074892;28;20120;-60
2020/12/23 06:55:10;;;;;;;28.98;15.43;;;11.10;99.90;;;;;;5072562;28;20122;-62
2020/12/23 06:57:36;;;;;;;31.17;14.82;;;11.20;99.90;;;;;;5071101;28;20037;-61
2020/12/23 07:00:20;;;;;;;29.38;15.55;;;11.20;99.90;;;;;;5057234;28;20036;-61
2020/12/23 07:02:50;;;;;;;29.60;14.95;;;11.30;99.90;;;;;;5071857;28;20029;-61
2020/12/23 07:05:21;;;;;;;28.45;15.02;;;11.20;99.90;;;;;;5070914;28;20112;-61
2020/12/23 07:07:55;;;;;;;33.28;16.80;;;11.30;99.90;;;;;;5054256;28;20029;-61
2020/12/23 07:10:23;;;;;;;31.13;16.15;;;11.30;99.90;;;;;;5066544;28;20024;-61
2020/12/23 07:12:52;;;;;;;32.35;15.63;;;11.30;99.90;;;;;;5071994;28;20033;-63
2020/12/23 07:15:24;;;;;;;27.38;14.63;;;11.30;99.90;;;;;;5064792;28;20064;-61
2020/12/23 07:17:51;;;;;;;25.38;13.38;;;11.30;99.90;;;;;;5066122;28;20025;-60
2020/12/23 07:20:21;;;;;;;22.05;11.77;;;11.30;99.90;;;;;;5056776;28;20078;-63
2020/12/23 07:22:48;;;;;;;21.33;11.73;;;11.30;99.90;;;;;;5071521;28;20032;-62
2020/12/23 07:25:20;;;;;;;21.05;10.82;;;11.40;99.90;;;;;;5079007;28;20040;-61
2020/12/23 07:27:46;;;;;;;18.08;10.27;;;11.40;99.90;;;;;;5085067;28;20033;-61
2020/12/23 07:30:12;;;;;;;16.30;9.25;;;11.40;99.90;;;;;;5056951;28;20030;-61
2020/12/23 07:32:40;;;;;;;25.98;12.85;;;11.40;99.90;;;;;;5079522;28;20036;-61
2020/12/23 07:35:06;;;;;;;16.52;9.63;;;11.40;99.90;;;;;;5077246;28;20424;-62
2020/12/23 07:37:39;;;;;;;16.58;9.65;;;11.40;99.90;;;;;;5068049;28;20029;-61
2020/12/23 07:40:16;;;;;;;17.42;9.45;;;11.40;99.90;;;;;;5062453;28;20112;-61
2020/12/23 07:42:51;;;;;;;16.10;9.18;;;11.50;99.90;;;;;;5077064;28;20028;-61
2020/12/23 07:45:18;;;;;;;15.85;8.15;;;11.50;99.90;;;;;;5070727;28;20474;-61
2020/12/23 07:47:54;;;;;;;16.77;9.13;;;11.50;99.90;;;;;;5059484;28;20024;-61
2020/12/23 07:50:21;;;;;;;17.90;9.18;;;11.40;99.90;;;;;;5056892;28;20471;-60
2020/12/23 07:52:47;;;;;;;17.73;9.75;;;11.40;99.90;;;;;;5064992;28;20051;-62
2020/12/23 07:55:17;;;;;;;17.83;10.10;;;11.50;99.90;;;;;;5064778;28;20021;-62
2020/12/23 07:57:43;;;;;;;19.85;11.50;;;11.50;99.90;;;;;;5067906;28;20033;-63
2020/12/23 08:00:11;;;;;;;19.10;10.55;;;11.50;99.90;;;;;;5082541;28;20036;-61
2020/12/23 08:02:38;;;;;;;21.88;11.35;;;11.60;99.90;;;;;;5065836;28;20494;-62
2020/12/23 08:05:05;;;;;;;21.60;11.50;;;11.50;99.90;;;;;;5073738;28;20032;-61
2020/12/23 08:07:31;;;;;;;27.20;12.73;;;11.50;99.90;;;;;;5078552;28;20137;-62
2020/12/23 08:10:06;;;;;;;27.65;14.38;;;11.50;99.90;;;;;;5070234;28;20462;-63
2020/12/23 08:12:33;;;;;;;25.98;12.25;;;11.50;99.90;;;;;;5080895;28;20067;-61
2020/12/23 08:14:58;;;;;;;23.80;12.10;;;11.50;99.90;;;;;;5083006;28;20099;-62
2020/12/23 08:17:24;;;;;;;22.95;11.70;;;11.50;99.90;;;;;;5070199;28;20123;-61
2020/12/23 08:20:11;;;;;;;19.42;11.10;;;11.50;99.90;;;;;;5071377;28;20068;-61
2020/12/23 08:22:38;;;;;;;19.80;10.57;;;11.60;99.90;;;;;;5072149;28;20438;-62
2020/12/23 08:25:15;;;;;;;25.73;12.77;;;11.60;99.90;;;;;;5087631;28;20020;-62
2020/12/23 08:27:46;;;;;;;27.70;13.18;;;11.50;99.90;;;;;;5061651;28;20064;-61
2020/12/23 08:30:18;;;;;;;25.80;12.18;;;11.60;99.90;;;;;;5067780;28;20082;-62
2020/12/23 08:33:10;;;;;;;24.38;12.60;;;11.60;99.90;;;;;;5060034;28;20119;-62
2020/12/23 08:35:41;;;;;;;30.92;13.35;;;11.60;99.90;;;;;;5077295;28;20032;-61
2020/12/23 08:38:17;;;;;;;22.10;11.85;;;11.70;99.90;;;;;;5087762;28;20500;-61
2020/12/23 08:40:46;;;;;;;19.90;11.23;;;11.70;99.90;;;;;;5064895;28;20056;-61
2020/12/23 08:43:22;;;;;;;17.42;10.77;;;11.70;99.90;;;;;;5089240;28;20037;-62
2020/12/23 08:45:49;;;;;;;22.05;12.32;;;11.80;99.90;;;;;;5091000;28;20107;-62
2020/12/23 08:48:21;;;;;;;21.58;12.38;;;11.80;99.90;;;;;;5084306;28;20071;-63
2020/12/23 08:50:59;;;;;;;23.55;12.57;;;11.80;99.90;;;;;;5079610;28;20398;-63
2020/12/23 08:53:36;;;;;;;20.27;11.35;;;11.80;99.90;;;;;;5077630;28;20040;-61
2020/12/23 08:56:23;;;;;;;21.00;11.80;;;11.80;99.90;;;;;;5078140;28;20024;-62
2020/12/23 08:58:59;;;;;;;24.15;12.27;;;11.90;99.90;;;;;;5070781;28;20033;-62
2020/12/23 09:01:26;;;;;;;20.90;12.95;;;11.80;99.90;;;;;;5072623;28;20033;-60
2020/12/23 09:04:12;;;;;;;20.70;11.15;;;11.90;99.90;;;;;;5071104;28;20017;-61
2020/12/23 09:06:42;;;;;;;16.90;10.57;;;11.90;99.90;;;;;;5073748;28;20032;-62
2020/12/23 09:09:23;;;;;;;15.45;10.15;;;11.90;99.90;;;;;;5083324;28;20385;-62
2020/12/23 09:11:54;;;;;;;16.33;9.50;;;11.90;99.90;;;;;;5057941;28;20045;-62
2020/12/23 09:14:28;;;;;;;15.45;9.52;;;11.90;99.90;;;;;;5071409;28;20037;-61
2020/12/23 09:16:55;;;;;;;12.55;8.90;;;12.00;99.90;;;;;;5061166;28;20028;-62
2020/12/23 09:19:40;;;;;;;15.02;9.25;;;12.00;99.90;;;;;;5079516;28;20028;-61
2020/12/23 09:22:05;;;;;;;19.15;11.48;;;11.90;99.90;;;;;;5064039;28;20032;-62
2020/12/23 09:24:31;;;;;;;16.63;9.93;;;12.00;99.90;;;;;;5063574;28;20090;-62
2020/12/23 09:26:56;;;;;;;18.08;10.02;;;11.90;99.90;;;;;;5079903;28;20039;-61
2020/12/23 09:29:22;;;;;;;21.35;11.07;;;11.90;99.90;;;;;;5075227;28;20032;-62
2020/12/23 09:31:54;;;;;;;15.70;10.18;;;12.00;99.90;;;;;;5076948;28;20043;-62
2020/12/23 09:34:23;;;;;;;33.60;19.63;;;12.00;99.90;;;;;;5068722;28;20135;-62
2020/12/23 09:36:56;;;;;;;18.05;11.93;;;12.00;99.90;;;;;;5079168;28;20029;-61
2020/12/23 09:39:21;;;;;;;15.73;10.93;;;12.00;99.90;;;;;;5073678;28;20025;-61
2020/12/23 09:41:59;;;;;;;15.55;10.43;;;12.00;99.90;;;;;;5072329;28;20027;-61
2020/12/23 09:44:25;;;;;;;15.63;9.52;;;12.00;99.90;;;;;;5062368;28;20090;-63
2020/12/23 09:46:51;;;;;;;16.73;9.23;;;12.00;99.90;;;;;;5081551;28;20016;-62
2020/12/23 09:49:17;;;;;;;16.48;9.57;;;12.00;99.90;;;;;;5079807;28;20029;-61
2020/12/23 09:51:50;;;;;;;12.90;8.15;;;12.00;99.90;;;;;;5077695;28;20036;-61
2020/12/23 09:54:16;;;;;;;16.88;8.30;;;12.00;99.90;;;;;;5071980;28;20555;-61
2020/12/23 09:56:52;;;;;;;16.98;7.18;;;12.00;99.90;;;;;;5073166;28;20064;-61
2020/12/23 09:59:19;;;;;;;13.80;7.28;;;12.00;99.90;;;;;;5073081;28;20389;-62
2020/12/23 10:01:46;;;;;;;13.27;6.25;;;12.10;99.90;;;;;;5071391;28;20397;-62
2020/12/23 10:04:12;;;;;;;16.20;7.18;;;12.10;99.90;;;;;;5066843;28;20471;-62
2020/12/23 10:06:38;;;;;;;13.30;7.20;;;12.20;99.90;;;;;;5051967;28;20100;-62
2020/12/23 10:09:05;;;;;;;34.85;15.38;;;12.20;99.90;;;;;;5053675;28;20152;-62
2020/12/23 10:11:31;;;;;;;11.20;6.82;;;12.20;99.90;;;;;;5063670;28;20438;-62
2020/12/23 10:13:57;;;;;;;15.77;6.88;;;12.20;99.90;;;;;;5076533;28;20422;-65
2020/12/23 10:16:29;;;;;;;15.55;7.07;;;12.20;99.90;;;;;;5053578;28;20025;-59
2020/12/23 10:18:55;;;;;;;10.98;5.80;;;12.20;99.90;;;;;;5053686;28;20040;-59
2020/12/23 10:21:20;;;;;;;8.45;4.68;;;12.40;99.90;;;;;;5061965;28;20107;-62
2020/12/23 10:23:46;;;;;;;12.43;4.88;;;12.50;99.90;;;;;;5077180;28;20029;-58
2020/12/23 10:26:14;;;;;;;11.98;4.50;;;12.40;99.90;;;;;;5053363;28;20029;-60
2020/12/23 10:28:40;;;;;;;9.35;4.07;;;12.50;99.90;;;;;;5057876;28;20425;-60
2020/12/23 10:31:06;;;;;;;13.52;4.75;;;12.50;99.90;;;;;;5052857;28;20111;-61
2020/12/23 10:33:34;;;;;;;12.07;3.92;;;12.60;99.90;;;;;;5056913;28;20036;-60
2020/12/23 10:36:06;;;;;;;9.65;3.55;;;12.60;99.90;;;;;;5072001;28;20116;-61
2020/12/23 10:38:33;;;;;;;9.82;3.80;;;12.60;99.90;;;;;;5071673;28;20390;-60
2020/12/23 10:40:59;;;;;;;8.70;4.40;;;12.60;99.90;;;;;;5073160;28;20029;-63
2020/12/23 10:43:24;;;;;;;17.52;6.47;;;12.60;99.90;;;;;;5072222;28;20575;-63
2020/12/23 10:45:50;;;;;;;11.02;4.80;;;12.70;99.90;;;;;;5071237;28;20535;-61
2020/12/23 10:48:16;;;;;;;11.60;5.30;;;12.70;99.90;;;;;;5063740;28;20115;-60
2020/12/23 10:50:43;;;;;;;8.88;5.50;;;12.80;99.90;;;;;;5073347;28;20090;-61
2020/12/23 10:53:10;;;;;;;11.20;5.45;;;12.90;99.90;;;;;;5063127;28;20037;-61
2020/12/23 10:55:35;;;;;;;9.77;5.70;;;12.90;99.90;;;;;;5073096;28;20469;-60
2020/12/23 10:58:01;;;;;;;7.72;4.07;;;12.90;99.90;;;;;;5068819;28;20032;-62
2020/12/23 11:00:27;;;;;;;7.88;3.83;;;13.00;99.90;;;;;;5084826;28;20470;-62
2020/12/23 11:02:53;;;;;;;8.30;3.00;;;13.00;99.90;;;;;;5083956;28;20033;-60
2020/12/23 11:05:19;;;;;;;6.40;2.80;;;12.90;99.90;;;;;;5055154;28;20021;-60
2020/12/23 11:07:46;;;;;;;7.65;2.33;;;12.90;99.90;;;;;;5073308;28;20586;-61
2020/12/23 11:10:12;;;;;;;6.50;2.10;;;12.90;99.90;;;;;;5092030;28;20032;-61
2020/12/23 11:12:38;;;;;;;6.05;2.22;;;12.90;99.90;;;;;;5076317;28;20048;-63
2020/12/23 11:15:04;;;;;;;9.77;2.30;;;12.90;99.90;;;;;;5074586;28;20035;-61
2020/12/23 11:17:30;;;;;;;7.32;3.00;;;12.90;99.90;;;;;;5074915;28;20050;-61
2020/12/23 11:19:55;;;;;;;10.05;2.80;;;12.90;99.90;;;;;;5072258;28;20033;-61
2020/12/23 11:22:21;;;;;;;7.90;2.40;;;13.00;99.90;;;;;;5073953;28;20474;-60
2020/12/23 11:24:47;;;;;;;15.10;4.32;;;12.90;99.90;;;;;;5067853;28;20409;-61
2020/12/23 11:27:15;;;;;;;9.55;2.80;;;13.00;99.90;;;;;;5068657;28;20029;-61
2020/12/23 11:29:40;;;;;;;11.00;2.60;;;13.00;99.90;;;;;;5076368;28;20059;-61
2020/12/23 11:32:06;;;;;;;7.28;2.25;;;13.00;99.90;;;;;;5071291;28;20478;-60
2020/12/23 11:34:32;;;;;;;12.15;5.93;;;13.00;99.90;;;;;;5061624;28;20479;-60
2020/12/23 11:37:00;;;;;;;8.75;2.60;;;12.90;99.90;;;;;;5073423;28;20040;-60
2020/12/23 11:39:30;;;;;;;13.23;3.70;;;12.90;99.90;;;;;;5066529;28;20032;-62
2020/12/23 11:41:56;;;;;;;10.95;3.35;;;13.00;99.90;;;;;;5070871;28;20375;-61
2020/12/23 11:44:23;;;;;;;7.72;2.45;;;13.00;99.90;;;;;;5069087;28;20158;-61
2020/12/23 11:46:49;;;;;;;11.50;3.58;;;13.00;99.90;;;;;;5068550;28;20118;-61
2020/12/23 11:49:15;;;;;;;8.00;3.00;;;13.00;99.90;;;;;;5070772;28;20058;-61
2020/12/23 11:51:40;;;;;;;12.65;3.83;;;12.90;99.90;;;;;;5052494;28;20390;-63
2020/12/23 11:54:07;;;;;;;15.10;3.80;;;12.90;99.90;;;;;;5062106;28;20052;-61
2020/12/23 11:56:33;;;;;;;13.98;3.10;;;12.90;99.90;;;;;;5051807;28;20033;-60
2020/12/23 11:58:59;;;;;;;8.38;3.40;;;12.80;99.90;;;;;;5051893;28;20091;-61
2020/12/23 12:01:24;;;;;;;10.65;2.80;;;12.80;99.90;;;;;;5064583;28;20039;-62
2020/12/23 12:03:50;;;;;;;8.10;2.70;;;12.80;99.90;;;;;;5079362;28;20031;-60
2020/12/23 12:06:20;;;;;;;12.43;4.13;;;12.70;99.90;;;;;;5070175;28;20024;-61
2020/12/23 12:08:46;;;;;;;10.48;4.28;;;12.70;99.90;;;;;;5069903;28;20037;-63
2020/12/23 12:11:15;;;;;;;7.38;3.50;;;12.70;99.90;;;;;;5070967;28;20150;-61
2020/12/23 12:13:41;;;;;;;15.63;4.00;;;12.70;99.90;;;;;;5067136;28;20043;-61
2020/12/23 12:16:07;;;;;;;7.55;2.97;;;12.70;99.90;;;;;;5051123;28;20534;-61
2020/12/23 12:18:32;;;;;;;10.45;3.88;;;12.70;99.90;;;;;;5050773;28;20112;-63
2020/12/23 12:20:58;;;;;;;12.05;4.10;;;12.70;99.90;;;;;;5053842;28;20497;-61
2020/12/23 12:23:24;;;;;;;8.50;3.60;;;12.70;99.90;;;;;;5050759;28;20841;-63
2020/12/23 12:25:50;;;;;;;6.45;2.20;;;12.70;99.90;;;;;;5054508;28;20025;-60
2020/12/23 12:28:15;;;;;;;8.38;2.92;;;12.70;99.90;;;;;;5050483;28;20083;-62
2020/12/23 12:30:41;;;;;;;6.63;2.70;;;12.70;99.90;;;;;;5063303;28;20359;-61
2020/12/23 12:33:07;;;;;;;10.30;3.55;;;12.70;99.90;;;;;;5065215;28;20033;-61
2020/12/23 12:35:33;;;;;;;13.00;6.72;;;12.80;99.90;;;;;;5068104;28;20091;-62